Minerva Concert — SVWC — position and weather

sailwx.info

Track history (hours):
 
Tides and Currents Weather Stations Pressure Air Temp Water Temp Dewpoint Dewpoint Depression Visibility Wind Speed Wind Dir Waves Ship Positions

Minerva Concert

Last reported at 2014-Nov-01 06:28 UTC. Time now 2014-Nov-01 11:47 UTC.
Position N 57°24' E 008°21'.

Length 241 m; draft 14.7 m.

Type: Tanker. MMSI: 240110000.

Date/timePositionNaut miles runAvg speedWind from/ knotsBaromVisibWave heightAir tempDewpointWater temp
2014-Nov-01 06:28N 57°24' E 008°21'1011.5
2014-Nov-01 05:33N 57°29' E 008°37'2411.4
2014-Nov-01 03:29N 57°41' E 009°16'1311.6
2014-Nov-01 02:22N 57°46' E 009°38'1011.8
2014-Nov-01 01:33N 57°48' E 009°56'1211.9
2014-Nov-01 00:33N 57°50' E 010°18'1211.7
2014-Oct-31 23:33N 57°49' E 010°40'10 9.6
2014-Oct-31 22:33N 57°44' E 010°55'1212.0
2014-Oct-31 21:33N 57°36' E 011°11'1211.8
2014-Oct-31 20:33N 57°27' E 011°26'1212.1
2014-Oct-31 19:33N 57°16' E 011°34'1212.2
2014-Oct-31 18:33N 57°04' E 011°41'1212.3
2014-Oct-31 17:33N 56°53' E 011°49'1111.4
2014-Oct-31 16:33N 56°41' E 011°50'90 5.8
2014-Oct-31 01:06N 55°15' E 011°06'610.4
2014-Oct-31 00:29N 55°09' E 010°60'1111.9
2014-Oct-30 23:33N 54°58' E 010°58'1211.5
2014-Oct-30 22:33N 54°48' E 010°50'9 9.6
2014-Oct-30 21:33N 54°38' E 010°54'1311.4
2014-Oct-30 20:26N 54°35' E 011°15'1111.9
2014-Oct-30 19:30N 54°30' E 011°32'1111.5
2014-Oct-30 18:33N 54°27' E 011°50'1918.6
2014-Oct-30 17:33N 54°37' E 012°17'22 5.5
2014-Oct-30 13:30N 54°48' E 012°50'1110.0
2014-Oct-30 12:26N 54°53' E 013°07'3811.8
2014-Oct-30 09:14N 55°07' E 014°08'812.2
2014-Oct-30 08:33N 55°13' E 014°17'1212.1
2014-Oct-30 07:33N 55°23' E 014°29'1211.8
2014-Oct-30 06:33N 55°30' E 014°46'1212.3
2014-Oct-30 05:33N 55°35' E 015°06'14411.8
2014-Oct-29 17:18N 56°36' E 018°59'911.8
2014-Oct-29 16:30N 56°44' E 019°08'8610.9
2014-Oct-29 08:33N 58°02' E 020°18'5610.3
2014-Oct-29 03:07N 58°50' E 021°14'710.2
2014-Oct-29 02:24N 58°56' E 021°21'910.2
2014-Oct-29 01:31N 59°04' E 021°31'1010.4
2014-Oct-29 00:33N 59°11' E 021°43'1510.1
2014-Oct-28 23:06N 59°21' E 022°05'610.3
2014-Oct-28 22:32N 59°24' E 022°14'2410.5
2014-Oct-28 20:12N 59°34' E 022°58'710.9
2014-Oct-28 19:31N 59°36' E 023°12'1010.6
2014-Oct-28 18:33N 59°39' E 023°32'1110.9
2014-Oct-28 17:32N 59°41' E 023°53'1211.3
2014-Oct-28 16:30N 59°44' E 024°16'1010.6
2014-Oct-28 15:33N 59°44' E 024°35'1110.7
2014-Oct-28 14:33N 59°36' E 024°51'  
2014-Oct-25 11:18N 59°30' E 024°58'4 5.8
2014-Oct-25 10:33N 59°34' E 024°54'1110.9
2014-Oct-25 09:33N 59°43' E 024°40'12 9.5
2014-Oct-25 08:20N 59°51' E 024°57'1111.2
2014-Oct-25 07:22N 59°53' E 025°18'911.1
2014-Oct-25 06:33N 59°54' E 025°35'1110.9
2014-Oct-25 05:33N 59°56' E 025°57'1111.0
2014-Oct-25 04:32N 59°59' E 026°18'1111.0
2014-Oct-25 03:33N 60°01' E 026°39'1111.3
2014-Oct-25 02:33N 59°59' E 027°02'1010.6
2014-Oct-25 01:33N 60°05' E 027°20'  
Track history (hours):
 
Tides and Currents Weather Stations Pressure Air Temp Water Temp Dewpoint Dewpoint Depression Visibility Wind Speed Wind Dir Waves Ship Positions

Minerva Concert

Last reported at 2014-Nov-01 06:28 UTC. Time now 2014-Nov-01 11:47 UTC.
Position N 57°24' E 008°21'.

Length 241 m; draft 14.7 m.

Type: Tanker. MMSI: 240110000.

Date/timePositionNaut miles runAvg speedWind from/ knotsBaromVisibWave heightAir tempDewpointWater temp
2014-Nov-01 06:28N 57°24' E 008°21'1011.5
2014-Nov-01 05:33N 57°29' E 008°37'2411.4
2014-Nov-01 03:29N 57°41' E 009°16'1311.6
2014-Nov-01 02:22N 57°46' E 009°38'1011.8
2014-Nov-01 01:33N 57°48' E 009°56'1211.9
2014-Nov-01 00:33N 57°50' E 010°18'1211.7
2014-Oct-31 23:33N 57°49' E 010°40'10 9.6
2014-Oct-31 22:33N 57°44' E 010°55'1212.0
2014-Oct-31 21:33N 57°36' E 011°11'1211.8
2014-Oct-31 20:33N 57°27' E 011°26'1212.1
2014-Oct-31 19:33N 57°16' E 011°34'1212.2
2014-Oct-31 18:33N 57°04' E 011°41'1212.3
2014-Oct-31 17:33N 56°53' E 011°49'1111.4
2014-Oct-31 16:33N 56°41' E 011°50'90 5.8
2014-Oct-31 01:06N 55°15' E 011°06'610.4
2014-Oct-31 00:29N 55°09' E 010°60'1111.9
2014-Oct-30 23:33N 54°58' E 010°58'1211.5
2014-Oct-30 22:33N 54°48' E 010°50'9 9.6
2014-Oct-30 21:33N 54°38' E 010°54'1311.4
2014-Oct-30 20:26N 54°35' E 011°15'1111.9
2014-Oct-30 19:30N 54°30' E 011°32'1111.5
2014-Oct-30 18:33N 54°27' E 011°50'1918.6
2014-Oct-30 17:33N 54°37' E 012°17'22 5.5
2014-Oct-30 13:30N 54°48' E 012°50'1110.0
2014-Oct-30 12:26N 54°53' E 013°07'3811.8
2014-Oct-30 09:14N 55°07' E 014°08'812.2
2014-Oct-30 08:33N 55°13' E 014°17'1212.1
2014-Oct-30 07:33N 55°23' E 014°29'1211.8
2014-Oct-30 06:33N 55°30' E 014°46'1212.3
2014-Oct-30 05:33N 55°35' E 015°06'14411.8
2014-Oct-29 17:18N 56°36' E 018°59'911.8
2014-Oct-29 16:30N 56°44' E 019°08'8610.9
2014-Oct-29 08:33N 58°02' E 020°18'5610.3
2014-Oct-29 03:07N 58°50' E 021°14'710.2
2014-Oct-29 02:24N 58°56' E 021°21'910.2
2014-Oct-29 01:31N 59°04' E 021°31'1010.4
2014-Oct-29 00:33N 59°11' E 021°43'1510.1
2014-Oct-28 23:06N 59°21' E 022°05'610.3
2014-Oct-28 22:32N 59°24' E 022°14'2410.5
2014-Oct-28 20:12N 59°34' E 022°58'710.9
2014-Oct-28 19:31N 59°36' E 023°12'1010.6
2014-Oct-28 18:33N 59°39' E 023°32'1110.9
2014-Oct-28 17:32N 59°41' E 023°53'1211.3
2014-Oct-28 16:30N 59°44' E 024°16'1010.6
2014-Oct-28 15:33N 59°44' E 024°35'1110.7
2014-Oct-28 14:33N 59°36' E 024°51'  
2014-Oct-25 11:18N 59°30' E 024°58'4 5.8
2014-Oct-25 10:33N 59°34' E 024°54'1110.9
2014-Oct-25 09:33N 59°43' E 024°40'12 9.5
2014-Oct-25 08:20N 59°51' E 024°57'1111.2
2014-Oct-25 07:22N 59°53' E 025°18'911.1
2014-Oct-25 06:33N 59°54' E 025°35'1110.9
2014-Oct-25 05:33N 59°56' E 025°57'1111.0
2014-Oct-25 04:32N 59°59' E 026°18'1111.0
2014-Oct-25 03:33N 60°01' E 026°39'1111.3
2014-Oct-25 02:33N 59°59' E 027°02'1010.6
2014-Oct-25 01:33N 60°05' E 027°20'  

Dump ship's entire track history